sensor_id;sensor_type;location;lat;lon;timestamp;pressure;altitude;pressure_sealevel;temperature;humidity
61786;BME280;47692;53.714;11.372;2023-04-04T00:00:08;102651.28;;;-2.46;85.51
61786;BME280;47692;53.714;11.372;2023-04-04T00:02:34;102657.09;;;-2.48;85.05
61786;BME280;47692;53.714;11.372;2023-04-04T00:05:00;102646.47;;;-2.54;85.00
61786;BME280;47692;53.714;11.372;2023-04-04T00:07:25;102649.06;;;-2.68;84.77
61786;BME280;47692;53.714;11.372;2023-04-04T00:09:50;102655.78;;;-2.83;84.55
61786;BME280;47692;53.714;11.372;2023-04-04T00:12:16;102645.56;;;-2.97;84.74
61786;BME280;47692;53.714;11.372;2023-04-04T00:14:41;102646.94;;;-3.02;84.62
61786;BME280;47692;53.714;11.372;2023-04-04T00:17:07;102649.59;;;-3.00;84.61
61786;BME280;47692;53.714;11.372;2023-04-04T00:19:32;102647.34;;;-2.96;84.75
61786;BME280;47692;53.714;11.372;2023-04-04T00:21:57;102649.28;;;-2.92;84.98
61786;BME280;47692;53.714;11.372;2023-04-04T00:24:23;102646.34;;;-2.84;84.75
61786;BME280;47692;53.714;11.372;2023-04-04T00:26:48;102645.63;;;-2.82;84.88
61786;BME280;47692;53.714;11.372;2023-04-04T00:29:14;102641.69;;;-2.77;85.04
61786;BME280;47692;53.714;11.372;2023-04-04T00:31:40;102642.00;;;-2.72;85.07
61786;BME280;47692;53.714;11.372;2023-04-04T00:34:05;102635.28;;;-2.70;85.22
61786;BME280;47692;53.714;11.372;2023-04-04T00:36:31;102634.25;;;-2.73;85.87
61786;BME280;47692;53.714;11.372;2023-04-04T00:38:56;102638.84;;;-2.81;85.79
61786;BME280;47692;53.714;11.372;2023-04-04T00:41:21;102626.28;;;-2.92;85.38
61786;BME280;47692;53.714;11.372;2023-04-04T00:43:47;102633.34;;;-2.87;85.24
61786;BME280;47692;53.714;11.372;2023-04-04T00:46:13;102637.50;;;-2.89;85.57
61786;BME280;47692;53.714;11.372;2023-04-04T00:48:42;102631.78;;;-2.99;85.95
61786;BME280;47692;53.714;11.372;2023-04-04T00:51:07;102632.28;;;-3.04;85.89
61786;BME280;47692;53.714;11.372;2023-04-04T00:53:33;102633.78;;;-3.08;85.76
61786;BME280;47692;53.714;11.372;2023-04-04T00:55:58;102638.09;;;-3.07;85.43
61786;BME280;47692;53.714;11.372;2023-04-04T00:58:24;102633.16;;;-3.04;85.45
61786;BME280;47692;53.714;11.372;2023-04-04T01:00:50;102628.25;;;-3.01;85.60
61786;BME280;47692;53.714;11.372;2023-04-04T01:03:17;102624.91;;;-3.00;85.68
61786;BME280;47692;53.714;11.372;2023-04-04T01:05:42;102620.09;;;-3.09;85.50
61786;BME280;47692;53.714;11.372;2023-04-04T01:08:08;102624.13;;;-3.12;84.68
61786;BME280;47692;53.714;11.372;2023-04-04T01:10:33;102619.22;;;-3.09;85.03
61786;BME280;47692;53.714;11.372;2023-04-04T01:12:59;102621.16;;;-3.05;85.67
61786;BME280;47692;53.714;11.372;2023-04-04T01:15:25;102621.38;;;-3.02;85.91
61786;BME280;47692;53.714;11.372;2023-04-04T01:17:51;102616.28;;;-3.02;86.05
61786;BME280;47692;53.714;11.372;2023-04-04T01:20:23;102617.13;;;-3.01;86.33
61786;BME280;47692;53.714;11.372;2023-04-04T01:22:49;102611.72;;;-3.06;86.62
61786;BME280;47692;53.714;11.372;2023-04-04T01:25:17;102614.28;;;-3.06;86.12
61786;BME280;47692;53.714;11.372;2023-04-04T01:27:42;102611.72;;;-3.06;86.29
61786;BME280;47692;53.714;11.372;2023-04-04T01:30:09;102612.53;;;-3.07;86.15
61786;BME280;47692;53.714;11.372;2023-04-04T01:37:43;102599.72;;;-2.94;86.03
61786;BME280;47692;53.714;11.372;2023-04-04T01:40:16;102590.50;;;-2.92;86.22
61786;BME280;47692;53.714;11.372;2023-04-04T01:42:43;102587.75;;;-2.95;86.60
61786;BME280;47692;53.714;11.372;2023-04-04T01:45:09;102580.66;;;-2.99;87.16
61786;BME280;47692;53.714;11.372;2023-04-04T01:47:41;102585.88;;;-2.97;87.39
61786;BME280;47692;53.714;11.372;2023-04-04T01:50:08;102582.44;;;-2.98;87.22
61786;BME280;47692;53.714;11.372;2023-04-04T01:52:34;102587.53;;;-2.98;87.08
61786;BME280;47692;53.714;11.372;2023-04-04T01:54:59;102574.59;;;-3.01;86.72
61786;BME280;47692;53.714;11.372;2023-04-04T01:57:25;102579.41;;;-3.05;86.58
61786;BME280;47692;53.714;11.372;2023-04-04T01:59:50;102579.41;;;-3.05;86.44
61786;BME280;47692;53.714;11.372;2023-04-04T02:02:15;102579.91;;;-3.11;86.13
61786;BME280;47692;53.714;11.372;2023-04-04T02:04:41;102574.00;;;-3.10;86.26
61786;BME280;47692;53.714;11.372;2023-04-04T02:07:06;102576.75;;;-3.07;86.22
61786;BME280;47692;53.714;11.372;2023-04-04T02:09:32;102573.41;;;-3.06;86.23
61786;BME280;47692;53.714;11.372;2023-04-04T02:11:58;102576.75;;;-3.07;86.46
61786;BME280;47692;53.714;11.372;2023-04-04T02:14:24;102571.44;;;-3.10;86.40
61786;BME280;47692;53.714;11.372;2023-04-04T02:16:49;102566.16;;;-3.13;86.72
61786;BME280;47692;53.714;11.372;2023-04-04T02:19:15;102564.66;;;-3.10;87.16
61786;BME280;47692;53.714;11.372;2023-04-04T02:21:40;102562.59;;;-3.02;87.09
61786;BME280;47692;53.714;11.372;2023-04-04T02:24:05;102560.22;;;-2.99;87.36
61786;BME280;47692;53.714;11.372;2023-04-04T02:26:31;102552.56;;;-2.99;88.03
61786;BME280;47692;53.714;11.372;2023-04-04T02:28:56;102555.09;;;-2.99;88.44
61786;BME280;47692;53.714;11.372;2023-04-04T02:31:22;102555.72;;;-3.03;88.49
61786;BME280;47692;53.714;11.372;2023-04-04T02:33:47;102551.00;;;-3.10;88.12
61786;BME280;47692;53.714;11.372;2023-04-04T02:36:12;102554.72;;;-3.05;88.18
61786;BME280;47692;53.714;11.372;2023-04-04T02:38:38;102544.31;;;-3.08;88.02
61786;BME280;47692;53.714;11.372;2023-04-04T02:41:03;102545.09;;;-3.09;88.07
61786;BME280;47692;53.714;11.372;2023-04-04T02:43:29;102545.88;;;-3.10;88.39
61786;BME280;47692;53.714;11.372;2023-04-04T02:45:54;102543.16;;;-3.13;88.48
61786;BME280;47692;53.714;11.372;2023-04-04T02:48:20;102543.72;;;-3.17;88.97
61786;BME280;47692;53.714;11.372;2023-04-04T02:50:45;102540.53;;;-3.28;88.15
61786;BME280;47692;53.714;11.372;2023-04-04T02:53:12;102545.41;;;-3.31;88.10
61786;BME280;47692;53.714;11.372;2023-04-04T02:55:37;102535.91;;;-3.34;87.91
61786;BME280;47692;53.714;11.372;2023-04-04T02:58:02;102534.34;;;-3.32;87.60
61786;BME280;47692;53.714;11.372;2023-04-04T03:00:28;102537.06;;;-3.29;87.54
61786;BME280;47692;53.714;11.372;2023-04-04T03:02:54;102536.75;;;-3.33;87.90
61786;BME280;47692;53.714;11.372;2023-04-04T03:05:20;102540.03;;;-3.49;87.34
61786;BME280;47692;53.714;11.372;2023-04-04T03:07:45;102530.47;;;-3.52;87.37
61786;BME280;47692;53.714;11.372;2023-04-04T03:10:11;102536.88;;;-3.45;87.96
61786;BME280;47692;53.714;11.372;2023-04-04T03:12:36;102533.03;;;-3.38;88.37
61786;BME280;47692;53.714;11.372;2023-04-04T03:15:02;102536.75;;;-3.33;88.73
61786;BME280;47692;53.714;11.372;2023-04-04T03:17:29;102530.97;;;-3.31;89.21
61786;BME280;47692;53.714;11.372;2023-04-04T03:19:55;102537.84;;;-3.30;89.08
61786;BME280;47692;53.714;11.372;2023-04-04T03:22:20;102532.94;;;-3.27;89.05
61786;BME280;47692;53.714;11.372;2023-04-04T03:24:45;102533.13;;;-3.23;89.38
61786;BME280;47692;53.714;11.372;2023-04-04T03:27:11;102533.34;;;-3.20;89.30
61786;BME280;47692;53.714;11.372;2023-04-04T03:29:36;102536.84;;;-3.18;89.53
61786;BME280;47692;53.714;11.372;2023-04-04T03:32:02;102540.91;;;-3.22;89.48
61786;BME280;47692;53.714;11.372;2023-04-04T03:34:27;102531.19;;;-3.28;89.74
61786;BME280;47692;53.714;11.372;2023-04-04T03:36:52;102541.38;;;-3.28;89.19
61786;BME280;47692;53.714;11.372;2023-04-04T03:39:18;102538.84;;;-3.28;89.53
61786;BME280;47692;53.714;11.372;2023-04-04T03:41:43;102536.88;;;-3.32;88.69
61786;BME280;47692;53.714;11.372;2023-04-04T03:44:08;102542.00;;;-3.45;87.99
61786;BME280;47692;53.714;11.372;2023-04-04T03:46:34;102533.53;;;-3.58;88.36
61786;BME280;47692;53.714;11.372;2023-04-04T03:48:59;102538.84;;;-3.68;88.49
61786;BME280;47692;53.714;11.372;2023-04-04T03:51:25;102535.00;;;-3.75;89.40
61786;BME280;47692;53.714;11.372;2023-04-04T03:53:54;102538.47;;;-3.74;90.18
61786;BME280;47692;53.714;11.372;2023-04-04T03:56:20;102540.19;;;-3.73;90.54
61786;BME280;47692;53.714;11.372;2023-04-04T03:58:45;102542.66;;;-3.75;90.52
61786;BME280;47692;53.714;11.372;2023-04-04T04:01:11;102539.81;;;-3.79;90.91
61786;BME280;47692;53.714;11.372;2023-04-04T04:03:37;102537.25;;;-3.79;91.07
61786;BME280;47692;53.714;11.372;2023-04-04T04:06:02;102538.25;;;-3.77;91.30
61786;BME280;47692;53.714;11.372;2023-04-04T04:08:27;102541.97;;;-3.72;91.54
61786;BME280;47692;53.714;11.372;2023-04-04T04:10:53;102531.28;;;-3.66;91.92
61786;BME280;47692;53.714;11.372;2023-04-04T04:13:18;102532.16;;;-3.66;92.28
61786;BME280;47692;53.714;11.372;2023-04-04T04:15:44;102534.53;;;-3.55;91.93
61786;BME280;47692;53.714;11.372;2023-04-04T04:18:09;102533.56;;;-3.44;91.80
61786;BME280;47692;53.714;11.372;2023-04-04T04:20:35;102539.06;;;-3.51;92.15
61786;BME280;47692;53.714;11.372;2023-04-04T04:23:00;102534.63;;;-3.54;92.35
61786;BME280;47692;53.714;11.372;2023-04-04T04:25:25;102530.22;;;-3.57;92.49
61786;BME280;47692;53.714;11.372;2023-04-04T04:27:54;102530.47;;;-3.52;92.57
61786;BME280;47692;53.714;11.372;2023-04-04T04:30:20;102533.72;;;-3.54;92.13
61786;BME280;47692;53.714;11.372;2023-04-04T04:32:48;102531.00;;;-3.58;92.01
61786;BME280;47692;53.714;11.372;2023-04-04T04:35:13;102534.94;;;-3.63;91.74
61786;BME280;47692;53.714;11.372;2023-04-04T04:37:39;102527.25;;;-3.63;91.12
61786;BME280;47692;53.714;11.372;2023-04-04T04:40:05;102525.88;;;-3.58;90.73
61786;BME280;47692;53.714;11.372;2023-04-04T04:42:31;102532.78;;;-3.57;90.59
61786;BME280;47692;53.714;11.372;2023-04-04T04:44:56;102528.53;;;-3.56;90.59
61786;BME280;47692;53.714;11.372;2023-04-04T04:47:21;102523.13;;;-3.47;90.34
61786;BME280;47692;53.714;11.372;2023-04-04T04:49:47;102529.63;;;-3.52;90.43
61786;BME280;47692;53.714;11.372;2023-04-04T04:52:13;102524.31;;;-3.55;90.12
61786;BME280;47692;53.714;11.372;2023-04-04T04:54:39;102524.13;;;-3.59;90.40
61786;BME280;47692;53.714;11.372;2023-04-04T04:57:04;102516.38;;;-3.60;90.57
61786;BME280;47692;53.714;11.372;2023-04-04T04:59:30;102513.41;;;-3.53;90.40
61786;BME280;47692;53.714;11.372;2023-04-04T05:01:56;102512.59;;;-3.52;89.80
61786;BME280;47692;53.714;11.372;2023-04-04T05:04:21;102505.84;;;-3.51;90.36
61786;BME280;47692;53.714;11.372;2023-04-04T05:06:46;102507.41;;;-3.53;90.07
61786;BME280;47692;53.714;11.372;2023-04-04T05:09:13;102511.81;;;-3.64;90.01
61786;BME280;47692;53.714;11.372;2023-04-04T05:11:38;102516.66;;;-3.69;90.37
61786;BME280;47692;53.714;11.372;2023-04-04T05:14:04;102518.91;;;-3.74;89.80
61786;BME280;47692;53.714;11.372;2023-04-04T05:16:30;102516.66;;;-3.69;89.94
61786;BME280;47692;53.714;11.372;2023-04-04T05:18:55;102511.72;;;-3.66;89.86
61786;BME280;47692;53.714;11.372;2023-04-04T05:21:21;102507.41;;;-3.67;90.13
61786;BME280;47692;53.714;11.372;2023-04-04T05:23:47;102508.78;;;-3.59;90.00
61786;BME280;47692;53.714;11.372;2023-04-04T05:26:13;102515.06;;;-3.53;90.47
61786;BME280;47692;53.714;11.372;2023-04-04T05:28:38;102516.84;;;-3.52;90.92
61786;BME280;47692;53.714;11.372;2023-04-04T05:31:05;102524.13;;;-3.45;91.23
61786;BME280;47692;53.714;11.372;2023-04-04T05:33:30;102514.19;;;-3.41;92.34
61786;BME280;47692;53.714;11.372;2023-04-04T05:35:55;102514.38;;;-3.37;92.58
61786;BME280;47692;53.714;11.372;2023-04-04T05:38:21;102518.00;;;-3.34;93.16
61786;BME280;47692;53.714;11.372;2023-04-04T05:40:46;102518.22;;;-3.44;93.26
61786;BME280;47692;53.714;11.372;2023-04-04T05:43:11;102518.03;;;-3.47;93.38
61786;BME280;47692;53.714;11.372;2023-04-04T05:45:37;102521.56;;;-3.45;93.81
61786;BME280;47692;53.714;11.372;2023-04-04T05:48:02;102517.41;;;-3.43;94.10
61786;BME280;47692;53.714;11.372;2023-04-04T05:50:28;102526.66;;;-3.45;94.08
61786;BME280;47692;53.714;11.372;2023-04-04T05:52:53;102516.25;;;-3.48;93.85
61786;BME280;47692;53.714;11.372;2023-04-04T05:55:20;102524.91;;;-3.46;94.29
61786;BME280;47692;53.714;11.372;2023-04-04T05:57:54;102518.41;;;-3.41;94.86
61786;BME280;47692;53.714;11.372;2023-04-04T06:00:21;102510.94;;;-3.38;95.22
61786;BME280;47692;53.714;11.372;2023-04-04T06:02:46;102505.25;;;-3.34;95.25
61786;BME280;47692;53.714;11.372;2023-04-04T06:05:12;102509.94;;;-3.27;95.51
61786;BME280;47692;53.714;11.372;2023-04-04T06:07:37;102507.00;;;-3.19;95.48
61786;BME280;47692;53.714;11.372;2023-04-04T06:10:03;102502.44;;;-3.10;95.71
61786;BME280;47692;53.714;11.372;2023-04-04T06:12:29;102498.00;;;-2.99;95.93
61786;BME280;47692;53.714;11.372;2023-04-04T06:14:54;102500.84;;;-2.95;96.24
61786;BME280;47692;53.714;11.372;2023-04-04T06:17:20;102500.84;;;-2.95;97.21
61786;BME280;47692;53.714;11.372;2023-04-04T06:19:45;102501.03;;;-2.92;97.64
61786;BME280;47692;53.714;11.372;2023-04-04T06:22:10;102501.88;;;-2.91;97.66
61786;BME280;47692;53.714;11.372;2023-04-04T06:24:35;102502.97;;;-2.87;97.78
61786;BME280;47692;53.714;11.372;2023-04-04T06:27:01;102506.50;;;-2.85;98.36
61786;BME280;47692;53.714;11.372;2023-04-04T06:29:26;102504.81;;;-2.85;97.83
61786;BME280;47692;53.714;11.372;2023-04-04T06:31:52;102505.72;;;-2.84;97.76
61786;BME280;47692;53.714;11.372;2023-04-04T06:34:20;102512.69;;;-2.82;97.96
61786;BME280;47692;53.714;11.372;2023-04-04T06:36:45;102506.06;;;-2.65;98.37
61786;BME280;47692;53.714;11.372;2023-04-04T06:39:10;102513.66;;;-2.51;98.85
61786;BME280;47692;53.714;11.372;2023-04-04T06:41:36;102512.09;;;-2.34;100.00
61786;BME280;47692;53.714;11.372;2023-04-04T06:44:01;102515.22;;;-2.25;100.00
61786;BME280;47692;53.714;11.372;2023-04-04T06:46:26;102519.16;;;-2.15;100.00
61786;BME280;47692;53.714;11.372;2023-04-04T06:48:52;102513.03;;;-2.04;100.00
61786;BME280;47692;53.714;11.372;2023-04-04T06:51:18;102515.09;;;-1.97;100.00
61786;BME280;47692;53.714;11.372;2023-04-04T06:53:44;102505.94;;;-1.93;100.00
61786;BME280;47692;53.714;11.372;2023-04-04T06:56:10;102511.75;;;-1.66;100.00
61786;BME280;47692;53.714;11.372;2023-04-04T06:58:36;102509.59;;;-1.43;100.00
61786;BME280;47692;53.714;11.372;2023-04-04T07:01:03;102516.28;;;-1.30;100.00
61786;BME280;47692;53.714;11.372;2023-04-04T07:03:28;102515.25;;;-1.17;100.00
61786;BME280;47692;53.714;11.372;2023-04-04T07:05:53;102506.13;;;-1.12;100.00
61786;BME280;47692;53.714;11.372;2023-04-04T07:08:19;102502.22;;;-1.05;100.00
61786;BME280;47692;53.714;11.372;2023-04-04T07:10:44;102505.38;;;-0.94;100.00
61786;BME280;47692;53.714;11.372;2023-04-04T07:13:10;102512.56;;;-0.87;100.00
61786;BME280;47692;53.714;11.372;2023-04-04T07:15:35;102511.53;;;-0.74;100.00
61786;BME280;47692;53.714;11.372;2023-04-04T07:18:01;102511.63;;;-0.73;100.00
61786;BME280;47692;53.714;11.372;2023-04-04T07:20:26;102512.56;;;-0.54;100.00
61786;BME280;47692;53.714;11.372;2023-04-04T07:22:52;102513.22;;;-0.42;100.00
61786;BME280;47692;53.714;11.372;2023-04-04T07:25:18;102502.97;;;-0.24;100.00
61786;BME280;47692;53.714;11.372;2023-04-04T07:27:43;102511.22;;;-0.13;100.00
61786;BME280;47692;53.714;11.372;2023-04-04T07:30:09;102505.59;;;-0.06;99.71
61786;BME280;47692;53.714;11.372;2023-04-04T07:32:35;102507.66;;;0.02;98.16
61786;BME280;47692;53.714;11.372;2023-04-04T07:35:02;102501.88;;;0.06;97.56
61786;BME280;47692;53.714;11.372;2023-04-04T07:37:29;102503.19;;;0.15;95.68
61786;BME280;47692;53.714;11.372;2023-04-04T07:39:54;102500.50;;;0.30;93.74
61786;BME280;47692;53.714;11.372;2023-04-04T07:42:19;102508.44;;;0.35;92.09
61786;BME280;47692;53.714;11.372;2023-04-04T07:44:53;102498.22;;;0.37;91.47
61786;BME280;47692;53.714;11.372;2023-04-04T07:47:18;102510.34;;;0.57;91.91
61786;BME280;47692;53.714;11.372;2023-04-04T07:49:44;102502.75;;;0.60;90.78
61786;BME280;47692;53.714;11.372;2023-04-04T07:52:09;102499.72;;;0.69;87.70
61786;BME280;47692;53.714;11.372;2023-04-04T07:54:35;102493.59;;;0.85;86.23
61786;BME280;47692;53.714;11.372;2023-04-04T07:57:00;102494.84;;;0.93;84.85
61786;BME280;47692;53.714;11.372;2023-04-04T07:59:29;102495.19;;;1.01;84.25
61786;BME280;47692;53.714;11.372;2023-04-04T08:01:55;102489.69;;;1.13;85.50
61786;BME280;47692;53.714;11.372;2023-04-04T08:04:20;102492.00;;;1.26;84.95
61786;BME280;47692;53.714;11.372;2023-04-04T08:06:46;102488.03;;;1.33;85.72
61786;BME280;47692;53.714;11.372;2023-04-04T08:09:11;102485.09;;;1.25;84.16
61786;BME280;47692;53.714;11.372;2023-04-04T08:11:36;102485.47;;;1.33;84.55
61786;BME280;47692;53.714;11.372;2023-04-04T08:14:02;102489.00;;;1.37;83.80
61786;BME280;47692;53.714;11.372;2023-04-04T08:16:28;102486.66;;;1.41;83.03
61786;BME280;47692;53.714;11.372;2023-04-04T08:18:53;102486.66;;;1.41;82.07
61786;BME280;47692;53.714;11.372;2023-04-04T08:21:18;102493.22;;;1.54;82.98
61786;BME280;47692;53.714;11.372;2023-04-04T08:23:44;102492.09;;;1.69;82.47
61786;BME280;47692;53.714;11.372;2023-04-04T08:26:09;102496.16;;;1.83;82.20
61786;BME280;47692;53.714;11.372;2023-04-04T08:28:36;102495.00;;;1.98;83.51
61786;BME280;47692;53.714;11.372;2023-04-04T08:31:01;102501.75;;;2.15;81.64
61786;BME280;47692;53.714;11.372;2023-04-04T08:33:28;102508.72;;;2.18;78.82
61786;BME280;47692;53.714;11.372;2023-04-04T08:35:54;102497.78;;;2.23;79.60
61786;BME280;47692;53.714;11.372;2023-04-04T08:38:21;102503.31;;;2.33;78.98
61786;BME280;47692;53.714;11.372;2023-04-04T08:40:46;102496.97;;;2.47;78.83
61786;BME280;47692;53.714;11.372;2023-04-04T08:43:13;102501.09;;;2.65;78.14
61786;BME280;47692;53.714;11.372;2023-04-04T08:45:41;102500.31;;;2.67;75.34
61786;BME280;47692;53.714;11.372;2023-04-04T08:48:12;102496.06;;;2.68;69.63
61786;BME280;47692;53.714;11.372;2023-04-04T08:50:39;102502.84;;;2.66;69.36
61786;BME280;47692;53.714;11.372;2023-04-04T08:53:08;102495.16;;;2.67;69.54
61786;BME280;47692;53.714;11.372;2023-04-04T08:55:33;102493.81;;;2.77;71.00
61786;BME280;47692;53.714;11.372;2023-04-04T08:57:59;102497.41;;;2.81;71.38
61786;BME280;47692;53.714;11.372;2023-04-04T09:00:24;102495.13;;;2.88;70.27
61786;BME280;47692;53.714;11.372;2023-04-04T09:03:04;102501.94;;;2.86;69.95
61786;BME280;47692;53.714;11.372;2023-04-04T09:05:30;102500.88;;;2.81;70.57
61786;BME280;47692;53.714;11.372;2023-04-04T09:07:57;102501.94;;;2.86;71.11
61786;BME280;47692;53.714;11.372;2023-04-04T09:10:22;102494.66;;;2.99;72.54
61786;BME280;47692;53.714;11.372;2023-04-04T09:12:49;102485.25;;;3.01;73.76
61786;BME280;47692;53.714;11.372;2023-04-04T09:15:15;102485.41;;;3.05;71.15
61786;BME280;47692;53.714;11.372;2023-04-04T09:17:41;102488.13;;;3.09;72.18
61786;BME280;47692;53.714;11.372;2023-04-04T09:20:32;102495.06;;;3.10;73.15
61786;BME280;47692;53.714;11.372;2023-04-04T09:22:57;102486.81;;;3.20;72.69
61786;BME280;47692;53.714;11.372;2023-04-04T09:25:22;102486.81;;;3.20;71.76
61786;BME280;47692;53.714;11.372;2023-04-04T09:27:48;102484.41;;;3.25;71.41
61786;BME280;47692;53.714;11.372;2023-04-04T09:30:14;102483.78;;;3.32;70.90
61786;BME280;47692;53.714;11.372;2023-04-04T09:32:40;102490.59;;;3.30;70.81
61786;BME280;47692;53.714;11.372;2023-04-04T09:35:05;102493.63;;;3.42;70.82
61786;BME280;47692;53.714;11.372;2023-04-04T09:37:31;102481.75;;;3.47;69.41
61786;BME280;47692;53.714;11.372;2023-04-04T09:39:56;102481.22;;;3.58;68.33
61786;BME280;47692;53.714;11.372;2023-04-04T09:42:23;102487.16;;;3.55;68.30
61786;BME280;47692;53.714;11.372;2023-04-04T09:44:52;102477.22;;;3.66;68.70
61786;BME280;47692;53.714;11.372;2023-04-04T09:49:50;102474.31;;;3.82;67.25
61786;BME280;47692;53.714;11.372;2023-04-04T09:52:19;102469.25;;;3.85;67.41
61786;BME280;47692;53.714;11.372;2023-04-04T09:54:54;102467.00;;;3.96;66.24
61786;BME280;47692;53.714;11.372;2023-04-04T09:57:20;102468.94;;;4.02;65.38
61786;BME280;47692;53.714;11.372;2023-04-04T09:59:45;102474.91;;;4.01;65.02
61786;BME280;47692;53.714;11.372;2023-04-04T10:02:11;102471.72;;;4.08;65.93
61786;BME280;47692;53.714;11.372;2023-04-04T10:04:36;102470.53;;;3.98;64.38
61786;BME280;47692;53.714;11.372;2023-04-04T10:07:02;102467.22;;;4.02;64.71
61786;BME280;47692;53.714;11.372;2023-04-04T10:09:27;102466.03;;;3.93;64.22
61786;BME280;47692;53.714;11.372;2023-04-04T10:12:07;102460.44;;;4.06;65.19
61786;BME280;47692;53.714;11.372;2023-04-04T10:14:36;102474.69;;;4.20;65.30
61786;BME280;47692;53.714;11.372;2023-04-04T10:17:08;102460.19;;;4.26;66.61
61786;BME280;47692;53.714;11.372;2023-04-04T10:19:38;102467.38;;;4.34;66.67
61786;BME280;47692;53.714;11.372;2023-04-04T10:22:06;102467.41;;;4.36;66.40
61786;BME280;47692;53.714;11.372;2023-04-04T10:24:32;102454.88;;;4.50;66.38
61786;BME280;47692;53.714;11.372;2023-04-04T10:26:57;102459.44;;;4.59;65.05
61786;BME280;47692;53.714;11.372;2023-04-04T10:29:24;102450.78;;;4.57;63.79
61786;BME280;47692;53.714;11.372;2023-04-04T10:31:58;102444.72;;;4.56;64.29
61786;BME280;47692;53.714;11.372;2023-04-04T10:34:39;102442.22;;;4.58;64.46
61786;BME280;47692;53.714;11.372;2023-04-04T10:37:14;102432.56;;;4.53;63.49
61786;BME280;47692;53.714;11.372;2023-04-04T10:39:52;102431.94;;;4.61;65.13
61786;BME280;47692;53.714;11.372;2023-04-04T10:42:19;102425.97;;;4.63;64.59
61786;BME280;47692;53.714;11.372;2023-04-04T10:44:46;102422.03;;;4.76;64.74
61786;BME280;47692;53.714;11.372;2023-04-04T10:47:16;102418.91;;;4.88;62.50
61786;BME280;47692;53.714;11.372;2023-04-04T10:49:43;102412.97;;;4.92;62.27
61786;BME280;47692;53.714;11.372;2023-04-04T10:52:10;102416.84;;;5.07;62.66
61786;BME280;47692;53.714;11.372;2023-04-04T10:54:37;102415.28;;;5.13;61.86
61786;BME280;47692;53.714;11.372;2023-04-04T10:57:03;102410.22;;;5.18;61.00
61786;BME280;47692;53.714;11.372;2023-04-04T10:59:29;102409.44;;;5.21;61.28
61786;BME280;47692;53.714;11.372;2023-04-04T11:01:56;102408.16;;;5.38;59.93
61786;BME280;47692;53.714;11.372;2023-04-04T11:04:37;102399.75;;;5.47;58.90
61786;BME280;47692;53.714;11.372;2023-04-04T11:07:09;102405.19;;;5.58;59.97
61786;BME280;47692;53.714;11.372;2023-04-04T11:09:58;102399.88;;;5.52;57.98
61786;BME280;47692;53.714;11.372;2023-04-04T11:12:31;102398.25;;;5.57;59.03
61786;BME280;47692;53.714;11.372;2023-04-04T11:17:53;102393.59;;;5.77;59.49
61786;BME280;47692;53.714;11.372;2023-04-04T11:20:30;102384.88;;;5.73;57.33
61786;BME280;47692;53.714;11.372;2023-04-04T11:23:17;102379.59;;;5.70;57.59
61786;BME280;47692;53.714;11.372;2023-04-04T11:25:52;102381.50;;;5.77;57.48
61786;BME280;47692;53.714;11.372;2023-04-04T11:39:16;102374.97;;;5.95;56.04
61786;BME280;47692;53.714;11.372;2023-04-04T11:44:19;102361.06;;;6.28;54.22
61786;BME280;47692;53.714;11.372;2023-04-04T11:46:45;102361.91;;;6.27;54.96
61786;BME280;47692;53.714;11.372;2023-04-04T11:49:12;102361.59;;;6.13;56.58
61786;BME280;47692;53.714;11.372;2023-04-04T11:51:41;102359.00;;;6.13;56.38
61786;BME280;47692;53.714;11.372;2023-04-04T11:54:14;102366.28;;;5.93;56.37
61786;BME280;47692;53.714;11.372;2023-04-04T11:56:43;102356.81;;;5.93;55.27
61786;BME280;47692;53.714;11.372;2023-04-04T11:59:16;102353.72;;;6.08;55.12
61786;BME280;47692;53.714;11.372;2023-04-04T12:01:42;102353.97;;;6.19;55.98
61786;BME280;47692;53.714;11.372;2023-04-04T12:04:09;102356.88;;;6.35;56.00
61786;BME280;47692;53.714;11.372;2023-04-04T12:06:34;102355.50;;;6.54;55.18
61786;BME280;47692;53.714;11.372;2023-04-04T12:09:01;102357.41;;;6.61;54.16
61786;BME280;47692;53.714;11.372;2023-04-04T12:11:29;102355.38;;;6.47;52.45
61786;BME280;47692;53.714;11.372;2023-04-04T12:13:55;102346.53;;;6.81;52.52
61786;BME280;47692;53.714;11.372;2023-04-04T12:16:21;102340.00;;;7.01;50.45
61786;BME280;47692;53.714;11.372;2023-04-04T12:18:48;102334.88;;;7.06;51.03
61786;BME280;47692;53.714;11.372;2023-04-04T12:21:13;102342.84;;;7.17;50.56
61786;BME280;47692;53.714;11.372;2023-04-04T12:23:39;102346.78;;;7.43;50.05
61786;BME280;47692;53.714;11.372;2023-04-04T12:26:04;102343.31;;;7.44;49.96
61786;BME280;47692;53.714;11.372;2023-04-04T12:28:31;102334.94;;;7.64;50.75
61786;BME280;47692;53.714;11.372;2023-04-04T12:30:59;102330.09;;;7.86;48.89
61786;BME280;47692;53.714;11.372;2023-04-04T12:33:30;102319.94;;;8.04;47.68
61786;BME280;47692;53.714;11.372;2023-04-04T12:35:58;102314.59;;;7.95;48.25
61786;BME280;47692;53.714;11.372;2023-04-04T12:38:24;102318.22;;;8.06;49.23
61786;BME280;47692;53.714;11.372;2023-04-04T12:40:50;102316.28;;;7.90;49.28
61786;BME280;47692;53.714;11.372;2023-04-04T12:43:16;102313.00;;;8.03;48.71
61786;BME280;47692;53.714;11.372;2023-04-04T12:45:42;102311.22;;;8.02;48.26
61786;BME280;47692;53.714;11.372;2023-04-04T12:48:13;102312.25;;;8.15;48.98
61786;BME280;47692;53.714;11.372;2023-04-04T12:50:53;102301.94;;;8.21;49.77
61786;BME280;47692;53.714;11.372;2023-04-04T12:53:20;102301.78;;;8.09;47.63
61786;BME280;47692;53.714;11.372;2023-04-04T12:55:47;102300.84;;;8.02;48.23
61786;BME280;47692;53.714;11.372;2023-04-04T12:58:17;102299.31;;;8.20;49.40
61786;BME280;47692;53.714;11.372;2023-04-04T13:00:44;102303.78;;;8.30;50.05
61786;BME280;47692;53.714;11.372;2023-04-04T13:03:12;102290.59;;;8.18;48.57